logo
Rechercher aéroport 
image banner adimage banner adimage banner ad
image banner ad

VISR - Srinagar Indian Air Force

Situé à Srinagar, India

ICAO - VISR, IATA - SXR

Données fournies par Airmate  

Information générale

Coordonnées: N33°59'18" E74°46'27"
Élévation : 5437 feet MSL.
Variation magnétique : 3° East
Voir autres Aéroports à Jammu and Kashmir

Données opérationnelles

Special qualification required
Heure actuelle UTC:
Heure actuelle locale:
Météo
TAF: TAF VISR 200930Z 2012/2024 30005KT 6000 FEW025 SCT200 TEMPO 2012/2015 27015G25KT TSRA SCT025 FEW030CB BKN100
Voir NOTAMs / SUP AIP / TFR affectant cet aéroport [VIEW]
Fréquences de communication: [VIEW]

Pistes:

Identifiant RWYQFULongueur (ft)Largeur (ft)SurfaceLDA (ft)
1312001150ASP
3112001150ASP

Coordonnées de l'aéroport

Adresse: Srinagar India

Vue satellite de VISR